Time;durP1;ratioP1;P1;durP2;ratioP2;P2;SDS_P1;SDS_P2;PMS_P1;PMS_P2;Temp;Humidity;BMP_temperature;BMP_pressure;BME280_temperature;BME280_humidity;BME280_pressure;Samples;Min_cycle;Max_cycle;Signal;HPM_P1;HPM_P2
2021/06/07 00:02:11;;;;;;;;;;;17.80;85.00;;;;;;4316718;33;20061;-80
2021/06/07 00:04:44;;;;;;;;;;;17.80;85.00;;;;;;4304471;33;20445;-80
2021/06/07 00:07:12;;;;;;;;;;;17.70;84.70;;;;;;4302967;33;45068;-80
2021/06/07 00:09:40;;;;;;;;;;;17.70;84.60;;;;;;4316025;33;44980;-80
2021/06/07 00:12:15;;;;;;;;;;;17.70;84.50;;;;;;4317796;33;20028;-80
2021/06/07 00:14:42;;;;;;;;;;;17.80;84.60;;;;;;4317307;33;20002;-80
2021/06/07 00:17:12;;;;;;;;;;;17.70;84.50;;;;;;4317674;33;20043;-80
2021/06/07 00:19:40;;;;;;;;;;;17.70;84.50;;;;;;4315911;33;41453;-80
2021/06/07 00:22:08;;;;;;;;;;;17.70;84.60;;;;;;4304156;33;20056;-80
2021/06/07 00:24:37;;;;;;;;;;;17.70;84.60;;;;;;4316316;33;43645;-81
2021/06/07 00:27:05;;;;;;;;;;;17.70;84.60;;;;;;4316130;33;42558;-81
2021/06/07 00:29:33;;;;;;;;;;;17.70;84.70;;;;;;4303040;33;44041;-80
2021/06/07 00:32:00;;;;;;;;;;;17.70;84.70;;;;;;4303203;33;44589;-81
2021/06/07 00:34:28;;;;;;;;;;;17.70;84.60;;;;;;4316159;33;38612;-80
2021/06/07 00:36:55;;;;;;;;;;;17.70;84.70;;;;;;4316398;33;20006;-80
2021/06/07 00:39:25;;;;;;;;;;;17.70;84.70;;;;;;4316923;33;20017;-80
2021/06/07 00:41:52;;;;;;;;;;;17.70;84.70;;;;;;4302903;33;43657;-81
2021/06/07 00:44:21;;;;;;;;;;;17.60;84.60;;;;;;4316087;33;45051;-80
2021/06/07 00:46:48;;;;;;;;;;;17.70;84.70;;;;;;4316072;33;42404;-80
2021/06/07 00:49:18;;;;;;;;;;;17.70;84.70;;;;;;4302812;33;35975;-80
2021/06/07 00:51:46;;;;;;;;;;;17.60;84.60;;;;;;4302409;33;43703;-80
2021/06/07 00:54:16;;;;;;;;;;;17.60;84.50;;;;;;4290573;33;39041;-81
2021/06/07 00:56:44;;;;;;;;;;;17.60;84.50;;;;;;4302907;33;43657;-80
2021/06/07 00:59:11;;;;;;;;;;;17.60;84.50;;;;;;4315946;33;43623;-80
2021/06/07 01:01:39;;;;;;;;;;;17.60;84.30;;;;;;4302568;33;44723;-80
2021/06/07 01:04:06;;;;;;;;;;;17.60;84.20;;;;;;4316266;33;42428;-80
2021/06/07 01:06:33;;;;;;;;;;;17.60;84.20;;;;;;4317056;33;19998;-80
2021/06/07 01:09:00;;;;;;;;;;;17.60;84.20;;;;;;4302730;33;44142;-80
2021/06/07 01:11:30;;;;;;;;;;;17.60;84.20;;;;;;4317395;33;20014;-80
2021/06/07 01:13:58;;;;;;;;;;;17.50;84.10;;;;;;4292011;33;20002;-80
2021/06/07 01:16:25;;;;;;;;;;;17.50;84.00;;;;;;4316193;33;35739;-80
2021/06/07 01:18:53;;;;;;;;;;;17.50;84.00;;;;;;4302878;33;44258;-80
2021/06/07 01:21:23;;;;;;;;;;;17.50;83.90;;;;;;4315782;33;44265;-80
2021/06/07 01:23:51;;;;;;;;;;;17.50;83.80;;;;;;4316429;33;20026;-80
2021/06/07 01:26:19;;;;;;;;;;;17.50;83.80;;;;;;4302307;33;44695;-80
2021/06/07 01:28:46;;;;;;;;;;;17.40;83.60;;;;;;4315440;33;42511;-80
2021/06/07 01:31:17;;;;;;;;;;;17.40;83.50;;;;;;4290322;33;44243;-80
2021/06/07 01:33:46;;;;;;;;;;;17.40;83.50;;;;;;4315762;33;43313;-80
2021/06/07 01:36:13;;;;;;;;;;;17.40;83.40;;;;;;4316589;33;20010;-80
2021/06/07 01:38:43;;;;;;;;;;;17.40;83.40;;;;;;4291462;33;20028;-80
2021/06/07 01:41:12;;;;;;;;;;;17.40;83.30;;;;;;4315744;33;44322;-80
2021/06/07 01:43:42;;;;;;;;;;;17.30;83.30;;;;;;4303288;33;20084;-80
2021/06/07 01:46:12;;;;;;;;;;;17.30;83.10;;;;;;4303490;33;20088;-80
2021/06/07 01:48:39;;;;;;;;;;;17.30;83.10;;;;;;4291879;33;43999;-80
2021/06/07 01:51:07;;;;;;;;;;;17.30;83.10;;;;;;4318001;33;42843;-80
2021/06/07 01:53:35;;;;;;;;;;;17.20;83.10;;;;;;4318131;33;44142;-80
2021/06/07 01:56:04;;;;;;;;;;;17.20;83.00;;;;;;4318590;33;23948;-80
2021/06/07 01:58:31;;;;;;;;;;;17.20;83.00;;;;;;4299965;33;21230;-80
2021/06/07 02:01:07;;;;;;;;;;;17.20;83.00;;;;;;4318392;33;44311;-80
2021/06/07 02:03:37;;;;;;;;;;;17.20;82.90;;;;;;4305923;33;20009;-80
2021/06/07 02:06:05;;;;;;;;;;;17.20;82.90;;;;;;4304984;33;43118;-80
2021/06/07 02:08:32;;;;;;;;;;;17.20;82.90;;;;;;4318733;33;20418;-80
2021/06/07 02:11:02;;;;;;;;;;;17.10;82.80;;;;;;4317879;33;44683;-80
2021/06/07 02:13:29;;;;;;;;;;;17.10;82.80;;;;;;4305182;33;20403;-80
2021/06/07 02:16:01;;;;;;;;;;;17.10;82.70;;;;;;4305692;33;20008;-80
2021/06/07 02:18:32;;;;;;;;;;;17.10;82.70;;;;;;4294212;33;20037;-79
2021/06/07 02:21:06;;;;;;;;;;;17.10;82.70;;;;;;4319134;33;20438;-80
2021/06/07 02:23:38;;;;;;;;;;;17.10;82.60;;;;;;4305798;33;20366;-80
2021/06/07 02:26:11;;;;;;;;;;;17.00;82.50;;;;;;4319171;33;20018;-79
2021/06/07 02:28:44;;;;;;;;;;;17.00;82.50;;;;;;4293010;33;35374;-80
2021/06/07 02:31:11;;;;;;;;;;;17.00;82.50;;;;;;4304869;33;43690;-80
2021/06/07 02:33:38;;;;;;;;;;;17.00;82.50;;;;;;4304396;33;44516;-80
2021/06/07 02:36:06;;;;;;;;;;;17.00;82.50;;;;;;4317864;33;42710;-80
2021/06/07 02:38:33;;;;;;;;;;;17.00;82.50;;;;;;4317600;33;42423;-80
2021/06/07 02:41:00;;;;;;;;;;;17.00;82.60;;;;;;4317538;33;43668;-80
2021/06/07 02:43:28;;;;;;;;;;;16.90;82.50;;;;;;4317178;33;45024;-80
2021/06/07 02:45:55;;;;;;;;;;;16.90;82.50;;;;;;4303967;33;44255;-80
2021/06/07 02:48:22;;;;;;;;;;;16.90;82.30;;;;;;4317635;33;43653;-80
2021/06/07 02:50:49;;;;;;;;;;;16.90;82.40;;;;;;4317500;33;44494;-80
2021/06/07 02:53:19;;;;;;;;;;;16.90;82.50;;;;;;4304464;33;44615;-80
2021/06/07 02:55:48;;;;;;;;;;;16.90;82.50;;;;;;4304412;33;44646;-80
2021/06/07 02:58:19;;;;;;;;;;;16.80;82.40;;;;;;4318335;33;20021;-80
2021/06/07 03:01:00;;;;;;;;;;;16.80;82.40;;;;;;4318608;33;20043;-80
2021/06/07 03:03:28;;;;;;;;;;;16.80;82.40;;;;;;4303937;33;42168;-80
2021/06/07 03:05:55;;;;;;;;;;;16.80;82.30;;;;;;4304163;33;41396;-80
2021/06/07 03:08:24;;;;;;;;;;;16.80;82.30;;;;;;4304321;33;40085;-81
2021/06/07 03:10:52;;;;;;;;;;;16.80;82.40;;;;;;4317880;33;20026;-80
2021/06/07 03:13:25;;;;;;;;;;;16.70;82.30;;;;;;4318132;33;20112;-80
2021/06/07 03:15:55;;;;;;;;;;;16.70;83.10;;;;;;4304292;33;44699;-80
2021/06/07 03:18:22;;;;;;;;;;;16.70;82.30;;;;;;4291538;33;44892;-80
2021/06/07 03:20:50;;;;;;;;;;;16.70;82.30;;;;;;4317046;33;44694;-81
2021/06/07 03:23:24;;;;;;;;;;;16.60;82.20;;;;;;4304539;33;40190;-80
2021/06/07 03:25:51;;;;;;;;;;;16.60;82.20;;;;;;4303670;33;42509;-80
2021/06/07 03:28:19;;;;;;;;;;;16.60;82.30;;;;;;4316718;33;44080;-80
2021/06/07 03:30:52;;;;;;;;;;;16.60;82.40;;;;;;4317560;33;21422;-80
2021/06/07 03:33:19;;;;;;;;;;;16.60;82.40;;;;;;4304234;33;44452;-80
2021/06/07 03:35:48;;;;;;;;;;;16.60;82.40;;;;;;4317007;33;44714;-80
2021/06/07 03:38:16;;;;;;;;;;;16.60;82.40;;;;;;4316948;33;40889;-80
2021/06/07 03:40:46;;;;;;;;;;;16.60;82.40;;;;;;4291228;33;44476;-80
2021/06/07 03:43:15;;;;;;;;;;;16.50;82.30;;;;;;4303399;33;36908;-80
2021/06/07 03:45:42;;;;;;;;;;;16.50;82.40;;;;;;4316704;33;44075;-80
2021/06/07 03:48:09;;;;;;;;;;;16.50;82.30;;;;;;4316833;33;43661;-80
2021/06/07 03:50:39;;;;;;;;;;;16.50;82.40;;;;;;4303418;33;43614;-81
2021/06/07 03:53:07;;;;;;;;;;;16.50;82.30;;;;;;4317106;33;42956;-80
2021/06/07 03:55:35;;;;;;;;;;;16.50;82.30;;;;;;4316915;33;20014;-80
2021/06/07 03:58:02;;;;;;;;;;;16.50;82.30;;;;;;4303498;33;43279;-81
2021/06/07 04:00:31;;;;;;;;;;;16.50;82.30;;;;;;4317538;33;20009;-81
2021/06/07 04:03:02;;;;;;;;;;;16.50;82.30;;;;;;4292541;33;20120;-81
2021/06/07 04:05:34;;;;;;;;;;;16.50;82.30;;;;;;4304624;33;20007;-81
2021/06/07 04:08:05;;;;;;;;;;;16.50;82.40;;;;;;4316808;33;44334;-81
2021/06/07 04:10:34;;;;;;;;;;;16.50;82.30;;;;;;4317261;33;20018;-81
2021/06/07 04:13:02;;;;;;;;;;;16.40;82.30;;;;;;4302822;33;43393;-81
2021/06/07 04:15:31;;;;;;;;;;;16.40;82.30;;;;;;4316233;33;43558;-81
2021/06/07 04:17:58;;;;;;;;;;;16.40;82.30;;;;;;4302796;33;42739;-81
2021/06/07 04:20:27;;;;;;;;;;;16.40;82.30;;;;;;4316478;33;27010;-81
2021/06/07 04:22:54;;;;;;;;;;;16.40;82.20;;;;;;4304000;33;20385;-81
2021/06/07 04:25:24;;;;;;;;;;;16.40;82.20;;;;;;4316158;33;44674;-81
2021/06/07 04:27:52;;;;;;;;;;;16.40;82.20;;;;;;4291204;33;43604;-81
2021/06/07 04:30:20;;;;;;;;;;;16.40;82.20;;;;;;4303200;33;44064;-81
2021/06/07 04:32:48;;;;;;;;;;;16.40;82.20;;;;;;4303179;33;43346;-81
2021/06/07 04:35:16;;;;;;;;;;;16.30;82.20;;;;;;4304249;33;20021;-81
2021/06/07 04:37:50;;;;;;;;;;;16.30;82.20;;;;;;4302470;33;45273;-81
2021/06/07 04:40:37;;;;;;;;;;;16.30;82.20;;;;;;4316318;33;44675;-81
2021/06/07 04:43:09;;;;;;;;;;;16.30;82.30;;;;;;4316018;33;43937;-81
2021/06/07 04:45:38;;;;;;;;;;;16.30;82.40;;;;;;4303537;33;44157;-81
2021/06/07 04:48:05;;;;;;;;;;;16.30;82.50;;;;;;4303071;33;44700;-81
2021/06/07 04:50:35;;;;;;;;;;;16.30;82.60;;;;;;4303502;33;43434;-81
2021/06/07 04:53:09;;;;;;;;;;;16.30;82.80;;;;;;4302815;33;43813;-81
2021/06/07 04:55:36;;;;;;;;;;;16.30;82.80;;;;;;4303061;33;42493;-81
2021/06/07 04:58:04;;;;;;;;;;;16.30;82.90;;;;;;4303310;33;37685;-81
2021/06/07 05:00:32;;;;;;;;;;;16.30;83.00;;;;;;4316064;33;45042;-80
2021/06/07 05:02:59;;;;;;;;;;;16.30;83.00;;;;;;4302117;33;45194;-80
2021/06/07 05:05:33;;;;;;;;;;;16.30;83.20;;;;;;4316280;33;33895;-80
2021/06/07 05:08:00;;;;;;;;;;;16.30;83.30;;;;;;4315896;33;39003;-80
2021/06/07 05:10:27;;;;;;;;;;;16.30;83.40;;;;;;4302661;33;44314;-80
2021/06/07 05:12:55;;;;;;;;;;;16.30;83.60;;;;;;4303049;33;44313;-80
2021/06/07 05:15:22;;;;;;;;;;;16.20;83.60;;;;;;4315660;33;44423;-80
2021/06/07 05:17:49;;;;;;;;;;;16.30;83.80;;;;;;4302845;33;35606;-80
2021/06/07 05:20:18;;;;;;;;;;;16.20;84.00;;;;;;4315938;33;43648;-81
2021/06/07 05:22:46;;;;;;;;;;;16.30;84.20;;;;;;4303323;33;45077;-80
2021/06/07 05:25:13;;;;;;;;;;;16.20;84.20;;;;;;4318821;33;43309;-80
2021/06/07 05:27:40;;;;;;;;;;;16.30;84.40;;;;;;4318817;33;43533;-79
2021/06/07 05:30:08;;;;;;;;;;;16.30;84.50;;;;;;4318272;33;43875;-80
2021/06/07 05:32:35;;;;;;;;;;;16.30;84.60;;;;;;4318705;33;40120;-80
2021/06/07 05:35:03;;;;;;;;;;;16.30;84.80;;;;;;4304993;33;44424;-80
2021/06/07 05:37:31;;;;;;;;;;;16.30;84.80;;;;;;4319183;33;39449;-80
2021/06/07 05:39:58;;;;;;;;;;;16.30;84.90;;;;;;4305061;33;43894;-80
2021/06/07 05:42:25;;;;;;;;;;;16.30;85.10;;;;;;4318687;33;34291;-80
2021/06/07 05:44:55;;;;;;;;;;;16.30;85.20;;;;;;4318043;33;44621;-80
2021/06/07 05:47:22;;;;;;;;;;;16.30;85.30;;;;;;4305180;33;43392;-80
2021/06/07 05:49:49;;;;;;;;;;;16.30;85.40;;;;;;4318012;33;42354;-80
2021/06/07 05:52:16;;;;;;;;;;;16.40;85.60;;;;;;4318004;33;42645;-80
2021/06/07 05:54:43;;;;;;;;;;;16.40;85.60;;;;;;4304895;33;43320;-81
2021/06/07 05:57:13;;;;;;;;;;;16.40;85.70;;;;;;4304649;33;43571;-80
2021/06/07 05:59:40;;;;;;;;;;;16.40;85.80;;;;;;4318149;33;35136;-81
2021/06/07 06:02:07;;;;;;;;;;;16.40;85.80;;;;;;4305068;33;23038;-81
2021/06/07 06:04:40;;;;;;;;;;;16.40;86.00;;;;;;4305460;33;20017;-80
2021/06/07 06:07:07;;;;;;;;;;;16.40;86.10;;;;;;4305277;33;40933;-81
2021/06/07 06:09:34;;;;;;;;;;;16.40;86.20;;;;;;4304652;33;43295;-80
2021/06/07 06:12:02;;;;;;;;;;;16.40;86.30;;;;;;4317812;33;41486;-80
2021/06/07 06:14:29;;;;;;;;;;;16.40;86.40;;;;;;4292673;33;43438;-80
2021/06/07 06:16:57;;;;;;;;;;;16.40;86.50;;;;;;4304587;33;43893;-80
2021/06/07 06:19:27;;;;;;;;;;;16.50;86.70;;;;;;4306475;33;20028;-80
2021/06/07 06:21:54;;;;;;;;;;;16.50;86.90;;;;;;4304667;33;44465;-80
2021/06/07 06:24:21;;;;;;;;;;;16.40;86.70;;;;;;4292375;33;42846;-80
2021/06/07 06:26:48;;;;;;;;;;;16.50;86.70;;;;;;4304526;33;39336;-81
2021/06/07 06:29:15;;;;;;;;;;;16.50;86.90;;;;;;4318039;33;44497;-80
2021/06/07 06:31:42;;;;;;;;;;;16.50;87.10;;;;;;4318052;33;37540;-81
2021/06/07 06:34:14;;;;;;;;;;;16.50;87.10;;;;;;4318779;33;20434;-81
2021/06/07 06:36:41;;;;;;;;;;;16.50;87.20;;;;;;4304159;33;43956;-81
2021/06/07 06:39:08;;;;;;;;;;;16.50;87.30;;;;;;4317336;33;42735;-80
2021/06/07 06:41:36;;;;;;;;;;;16.50;87.40;;;;;;4317328;33;43625;-81
2021/06/07 06:44:03;;;;;;;;;;;16.50;87.50;;;;;;4304431;33;42005;-81
2021/06/07 06:46:30;;;;;;;;;;;16.50;87.50;;;;;;4317936;33;44235;-81
2021/06/07 06:49:02;;;;;;;;;;;16.50;87.50;;;;;;4317204;33;43961;-81
2021/06/07 06:51:31;;;;;;;;;;;16.50;87.70;;;;;;4317458;33;42720;-81
2021/06/07 06:53:59;;;;;;;;;;;16.60;87.90;;;;;;4317469;33;43876;-81
2021/06/07 06:56:26;;;;;;;;;;;16.60;88.10;;;;;;4317270;33;44509;-81
2021/06/07 06:58:53;;;;;;;;;;;16.60;88.10;;;;;;4291919;33;45064;-81
2021/06/07 07:01:20;;;;;;;;;;;16.60;88.30;;;;;;4303542;33;42286;-80
2021/06/07 07:03:47;;;;;;;;;;;16.60;88.30;;;;;;4317271;33;43261;-81
2021/06/07 07:06:14;;;;;;;;;;;16.60;88.40;;;;;;4291821;33;44621;-81
2021/06/07 07:08:41;;;;;;;;;;;16.60;88.40;;;;;;4291728;33;43364;-81
2021/06/07 07:11:10;;;;;;;;;;;16.70;88.50;;;;;;4317414;33;44679;-81
2021/06/07 07:13:38;;;;;;;;;;;16.70;88.40;;;;;;4317317;33;43486;-81
2021/06/07 07:16:06;;;;;;;;;;;16.70;88.40;;;;;;4304058;33;39265;-81
2021/06/07 07:18:33;;;;;;;;;;;16.70;88.50;;;;;;4303748;33;45489;-81
2021/06/07 07:21:00;;;;;;;;;;;16.70;88.50;;;;;;4316844;33;42952;-81
2021/06/07 07:23:30;;;;;;;;;;;16.70;88.60;;;;;;4328013;33;34941;-81
2021/06/07 07:25:58;;;;;;;;;;;16.70;88.60;;;;;;4316590;33;43202;-80
2021/06/07 07:28:25;;;;;;;;;;;16.70;88.70;;;;;;4305155;33;20010;-81
2021/06/07 07:30:52;;;;;;;;;;;16.70;88.70;;;;;;4316843;33;41022;-81
2021/06/07 07:33:36;;;;;;;;;;;16.80;88.80;;;;;;4317079;33;44050;-80
2021/06/07 07:36:09;;;;;;;;;;;16.80;88.80;;;;;;4303939;33;44687;-81
2021/06/07 07:38:37;;;;;;;;;;;16.80;88.80;;;;;;4303704;33;44882;-81
2021/06/07 07:41:04;;;;;;;;;;;16.80;88.70;;;;;;4303231;33;43352;-81
2021/06/07 07:43:31;;;;;;;;;;;16.80;88.70;;;;;;4317138;33;44332;-81
2021/06/07 07:46:01;;;;;;;;;;;16.80;88.80;;;;;;4302868;33;43782;-81
2021/06/07 07:48:29;;;;;;;;;;;16.80;88.70;;;;;;4316846;33;43558;-80
2021/06/07 07:50:56;;;;;;;;;;;16.80;88.70;;;;;;4316734;33;44315;-81
2021/06/07 07:53:27;;;;;;;;;;;16.80;88.70;;;;;;4304315;33;20077;-81
2021/06/07 07:55:55;;;;;;;;;;;16.80;88.50;;;;;;4303254;33;43934;-81
2021/06/07 07:58:22;;;;;;;;;;;16.80;88.70;;;;;;4317075;33;21439;-80
2021/06/07 08:00:54;;;;;;;;;;;16.90;88.80;;;;;;4316639;33;44231;-80
2021/06/07 08:03:21;;;;;;;;;;;16.90;88.60;;;;;;4316150;33;41133;-81
2021/06/07 08:05:48;;;;;;;;;;;16.90;88.60;;;;;;4303526;33;44362;-81
2021/06/07 08:08:16;;;;;;;;;;;16.90;88.70;;;;;;4316178;33;42506;-81
2021/06/07 08:10:43;;;;;;;;;;;16.90;88.70;;;;;;4316093;33;43585;-81
2021/06/07 08:13:10;;;;;;;;;;;16.90;88.60;;;;;;4303046;33;42162;-81
2021/06/07 08:15:39;;;;;;;;;;;16.90;88.70;;;;;;4304518;33;20077;-80
2021/06/07 08:18:07;;;;;;;;;;;16.90;88.80;;;;;;4316451;33;43661;-81
2021/06/07 08:20:34;;;;;;;;;;;16.90;88.60;;;;;;4316989;33;20005;-80
2021/06/07 08:23:02;;;;;;;;;;;16.90;88.70;;;;;;4302640;33;43459;-81
2021/06/07 08:25:29;;;;;;;;;;;16.90;88.70;;;;;;4303167;33;42323;-81
2021/06/07 08:27:57;;;;;;;;;;;17.00;88.60;;;;;;4315890;33;43688;-81
2021/06/07 08:30:24;;;;;;;;;;;17.00;88.60;;;;;;4317040;33;20017;-81
2021/06/07 08:32:52;;;;;;;;;;;17.00;88.60;;;;;;4316076;33;36136;-81
2021/06/07 08:35:19;;;;;;;;;;;17.00;88.70;;;;;;4316458;33;44546;-81
2021/06/07 08:37:46;;;;;;;;;;;17.00;88.70;;;;;;4316264;33;45102;-81
2021/06/07 08:40:15;;;;;;;;;;;17.00;88.60;;;;;;4316596;33;44313;-81
2021/06/07 08:42:44;;;;;;;;;;;17.00;88.60;;;;;;4304281;33;20002;-80
2021/06/07 08:45:21;;;;;;;;;;;17.00;88.60;;;;;;4316473;33;44331;-81
2021/06/07 08:47:49;;;;;;;;;;;17.00;88.60;;;;;;4302573;33;43475;-81
2021/06/07 08:50:24;;;;;;;;;;;17.00;88.60;;;;;;4302644;33;44429;-81
2021/06/07 08:52:51;;;;;;;;;;;17.00;88.50;;;;;;4302991;33;43682;-81
2021/06/07 08:55:19;;;;;;;;;;;17.00;88.60;;;;;;4315742;33;43408;-81
2021/06/07 08:57:52;;;;;;;;;;;17.00;88.60;;;;;;4303059;33;44420;-81
2021/06/07 09:00:23;;;;;;;;;;;17.10;88.60;;;;;;4316320;33;43691;-81
2021/06/07 09:02:57;;;;;;;;;;;17.10;88.60;;;;;;4315473;33;42655;-81
2021/06/07 09:05:25;;;;;;;;;;;17.10;88.60;;;;;;4290931;33;46579;-82
2021/06/07 09:07:55;;;;;;;;;;;17.10;88.60;;;;;;4303165;33;35656;-82
2021/06/07 09:10:23;;;;;;;;;;;17.10;88.60;;;;;;4302883;33;44686;-82
2021/06/07 09:12:51;;;;;;;;;;;17.10;88.60;;;;;;4315999;33;43853;-82
2021/06/07 09:15:33;;;;;;;;;;;17.10;88.60;;;;;;4302770;33;44505;-81
2021/06/07 09:18:01;;;;;;;;;;;17.10;88.50;;;;;;4302432;33;44600;-82
2021/06/07 09:20:29;;;;;;;;;;;17.10;88.30;;;;;;4315623;33;43803;-82
2021/06/07 09:22:56;;;;;;;;;;;17.10;88.20;;;;;;4315580;33;43292;-82
2021/06/07 09:25:26;;;;;;;;;;;17.20;88.40;;;;;;4315517;33;42987;-82
2021/06/07 09:28:13;;;;;;;;;;;17.20;88.40;;;;;;4303584;33;20490;-82
2021/06/07 09:30:46;;;;;;;;;;;17.20;88.40;;;;;;4316070;33;44106;-82
2021/06/07 09:33:29;;;;;;;;;;;17.20;88.40;;;;;;4302304;33;44279;-83
2021/06/07 09:36:13;;;;;;;;;;;17.20;88.20;;;;;;4316071;33;43313;-81
2021/06/07 09:38:59;;;;;;;;;;;17.20;88.20;;;;;;4316211;33;36382;-81
2021/06/07 09:41:29;;;;;;;;;;;17.20;88.20;;;;;;4315523;33;43390;-81
2021/06/07 09:44:00;;;;;;;;;;;17.20;88.20;;;;;;4290399;33;45096;-81
2021/06/07 09:46:29;;;;;;;;;;;17.20;88.20;;;;;;4316044;33;44195;-81
2021/06/07 09:49:10;;;;;;;;;;;17.20;88.20;;;;;;4316741;33;20013;-81
2021/06/07 09:51:38;;;;;;;;;;;17.20;88.20;;;;;;4315688;33;44617;-81
2021/06/07 09:54:07;;;;;;;;;;;17.30;88.30;;;;;;4302237;33;43259;-82
2021/06/07 09:56:47;;;;;;;;;;;17.30;88.20;;;;;;4315677;33;42320;-81
2021/06/07 09:59:27;;;;;;;;;;;17.30;88.20;;;;;;4315908;33;41147;-81
2021/06/07 10:01:58;;;;;;;;;;;17.30;88.20;;;;;;4302543;33;44151;-81
2021/06/07 10:04:44;;;;;;;;;;;17.30;88.20;;;;;;4302045;33;46826;-81
2021/06/07 10:07:17;;;;;;;;;;;17.40;88.20;;;;;;4302421;33;43644;-81
2021/06/07 10:10:03;;;;;;;;;;;17.40;88.20;;;;;;4317438;33;44995;-81
2021/06/07 10:12:30;;;;;;;;;;;17.40;88.10;;;;;;4305258;33;26546;-82
2021/06/07 10:15:01;;;;;;;;;;;17.40;88.10;;;;;;4306118;33;20002;-80
2021/06/07 10:17:31;;;;;;;;;;;17.40;87.90;;;;;;4318215;33;40038;-81
2021/06/07 10:22:38;;;;;;;;;;;17.40;87.80;;;;;;4304279;33;44587;-81
2021/06/07 10:25:06;;;;;;;;;;;17.50;87.80;;;;;;4317967;33;44508;-81
2021/06/07 10:27:33;;;;;;;;;;;17.50;87.70;;;;;;4304939;33;43284;-80
2021/06/07 10:30:02;;;;;;;;;;;17.50;87.80;;;;;;4317935;33;43003;-81
2021/06/07 10:32:29;;;;;;;;;;;17.50;87.70;;;;;;4304334;33;44879;-80
2021/06/07 10:35:04;;;;;;;;;;;17.50;87.70;;;;;;4292440;33;43299;-80
2021/06/07 10:37:34;;;;;;;;;;;17.60;87.70;;;;;;4317651;33;44704;-81
2021/06/07 10:40:20;;;;;;;;;;;17.60;87.60;;;;;;4317947;33;43611;-81
2021/06/07 10:42:58;;;;;;;;;;;17.60;87.60;;;;;;4304656;33;44505;-80
2021/06/07 10:45:31;;;;;;;;;;;17.60;87.50;;;;;;4304713;33;31212;-80
2021/06/07 10:48:01;;;;;;;;;;;17.60;87.40;;;;;;4318285;33;25057;-80
2021/06/07 10:50:32;;;;;;;;;;;17.70;87.40;;;;;;4317762;33;44692;-80
2021/06/07 10:53:02;;;;;;;;;;;17.70;87.40;;;;;;4317836;33;27575;-81
2021/06/07 10:55:34;;;;;;;;;;;17.70;87.40;;;;;;4305069;33;20411;-81
2021/06/07 10:58:08;;;;;;;;;;;17.70;87.30;;;;;;4318561;33;20056;-81
2021/06/07 11:00:45;;;;;;;;;;;17.80;87.20;;;;;;4318021;33;28269;-81
2021/06/07 11:03:16;;;;;;;;;;;17.80;87.10;;;;;;4304160;33;43361;-81
2021/06/07 11:05:49;;;;;;;;;;;17.80;87.10;;;;;;4305106;33;21626;-80
2021/06/07 11:08:18;;;;;;;;;;;17.80;87.10;;;;;;4304722;33;21950;-78
2021/06/07 11:10:47;;;;;;;;;;;17.80;87.00;;;;;;4317712;33;20010;-81
2021/06/07 11:13:21;;;;;;;;;;;17.80;87.10;;;;;;4318238;33;20455;-81
2021/06/07 11:15:54;;;;;;;;;;;17.90;87.10;;;;;;4318641;33;20057;-80
2021/06/07 11:18:30;;;;;;;;;;;17.90;87.00;;;;;;4304471;33;26750;-81
2021/06/07 11:21:07;;;;;;;;;;;17.90;87.00;;;;;;4317939;33;20039;-81
2021/06/07 11:23:38;;;;;;;;;;;18.00;87.00;;;;;;4317982;33;24700;-81
2021/06/07 11:26:06;;;;;;;;;;;18.00;86.80;;;;;;4304580;33;21226;-81
2021/06/07 11:28:50;;;;;;;;;;;18.00;86.80;;;;;;4318129;33;20016;-81
2021/06/07 11:31:17;;;;;;;;;;;18.00;86.80;;;;;;4317115;33;44452;-80
2021/06/07 11:33:50;;;;;;;;;;;18.10;86.90;;;;;;4292736;33;20053;-80
2021/06/07 11:37:01;;;;;;;;;;;18.10;86.80;;;;;;4305558;33;44759;-80
2021/06/07 11:39:43;;;;;;;;;;;18.10;86.70;;;;;;4313881;33;43368;-80
2021/06/07 11:42:18;;;;;;;;;;;18.10;86.70;;;;;;4303614;33;43355;-80
2021/06/07 11:44:57;;;;;;;;;;;18.10;86.70;;;;;;4316890;33;44703;-80
2021/06/07 11:47:36;;;;;;;;;;;18.20;86.80;;;;;;4316925;33;41733;-80
2021/06/07 11:50:05;;;;;;;;;;;18.20;86.80;;;;;;4317048;33;35119;-80
2021/06/07 11:52:32;;;;;;;;;;;18.20;86.70;;;;;;4303774;33;43300;-81
2021/06/07 11:55:18;;;;;;;;;;;18.20;86.70;;;;;;4318085;33;20002;-81
2021/06/07 11:57:50;;;;;;;;;;;18.30;86.80;;;;;;4292071;33;20006;-81
2021/06/07 12:00:19;;;;;;;;;;;18.30;86.80;;;;;;4317187;33;27861;-81
2021/06/07 12:02:48;;;;;;;;;;;18.30;86.70;;;;;;4317394;33;20028;-81
2021/06/07 12:05:17;;;;;;;;;;;18.30;86.60;;;;;;4316763;33;43452;-81
2021/06/07 12:07:46;;;;;;;;;;;18.40;86.50;;;;;;4316344;33;43759;-81
2021/06/07 12:10:14;;;;;;;;;;;18.40;86.60;;;;;;4291403;33;43328;-81
2021/06/07 12:12:42;;;;;;;;;;;18.40;86.50;;;;;;4316610;33;28299;-81
2021/06/07 12:15:09;;;;;;;;;;;18.40;87.20;;;;;;4316248;33;44383;-82
2021/06/07 12:17:44;;;;;;;;;;;18.40;86.40;;;;;;4316947;33;20029;-82
2021/06/07 12:20:12;;;;;;;;;;;18.40;86.40;;;;;;4317035;33;26993;-82
2021/06/07 12:22:41;;;;;;;;;;;18.40;86.40;;;;;;4304089;33;21328;-83
2021/06/07 12:30:41;;;;;;;;;;;18.40;86.40;;;;;;4316322;33;44286;-82
2021/06/07 12:33:09;;;;;;;;;;;18.50;86.40;;;;;;4303015;33;44356;-82
2021/06/07 12:35:38;;;;;;;;;;;18.40;86.40;;;;;;4302962;33;42512;-82
2021/06/07 12:38:09;;;;;;;;;;;18.50;86.50;;;;;;4316495;33;40211;-82
2021/06/07 12:40:41;;;;;;;;;;;18.50;86.50;;;;;;4316000;33;44325;-82
2021/06/07 12:43:08;;;;;;;;;;;18.50;86.60;;;;;;4302588;33;43414;-82
2021/06/07 12:45:38;;;;;;;;;;;18.60;86.60;;;;;;4302452;33;43892;-82
2021/06/07 12:48:26;;;;;;;;;;;18.60;86.50;;;;;;4316488;33;20112;-82
2021/06/07 12:50:56;;;;;;;;;;;18.60;86.40;;;;;;4303105;33;44723;-83
2021/06/07 12:53:28;;;;;;;;;;;18.60;86.30;;;;;;4303010;33;43672;-83
2021/06/07 12:55:57;;;;;;;;;;;18.60;86.30;;;;;;4316068;33;42468;-83
2021/06/07 12:58:27;;;;;;;;;;;18.70;86.30;;;;;;4316021;33;43704;-83
2021/06/07 13:00:55;;;;;;;;;;;18.70;86.30;;;;;;4302517;33;42407;-83
2021/06/07 13:03:27;;;;;;;;;;;18.70;86.20;;;;;;4302717;33;44308;-83
2021/06/07 13:06:01;;;;;;;;;;;18.70;86.20;;;;;;4316454;33;24411;-83
2021/06/07 13:08:28;;;;;;;;;;;18.70;86.20;;;;;;4302868;33;31316;-83
2021/06/07 13:11:04;;;;;;;;;;;18.70;86.10;;;;;;4304071;33;20021;-83
2021/06/07 13:13:36;;;;;;;;;;;18.80;86.20;;;;;;4316660;33;24392;-83
2021/06/07 13:16:26;;;;;;;;;;;18.80;86.10;;;;;;4292529;33;44616;-83
2021/06/07 13:18:55;;;;;;;;;;;18.80;86.10;;;;;;4304128;33;20328;-84
2021/06/07 13:21:30;;;;;;;;;;;18.80;86.10;;;;;;4303342;33;22523;-83
2021/06/07 13:23:57;;;;;;;;;;;18.80;86.00;;;;;;4302706;33;27471;-83
2021/06/07 13:26:35;;;;;;;;;;;18.90;86.10;;;;;;4316048;33;20087;-84
2021/06/07 13:29:17;;;;;;;;;;;18.90;86.00;;;;;;4316382;33;29402;-84
2021/06/07 13:31:53;;;;;;;;;;;18.90;85.90;;;;;;4315991;33;44516;-84
2021/06/07 13:34:27;;;;;;;;;;;18.90;85.80;;;;;;4316436;33;20010;-84
2021/06/07 13:37:11;;;;;;;;;;;18.90;85.80;;;;;;4303109;33;43254;-84
2021/06/07 13:39:40;;;;;;;;;;;18.90;85.80;;;;;;4316530;33;20022;-83
2021/06/07 13:42:08;;;;;;;;;;;19.00;85.70;;;;;;4303490;33;20008;-82
2021/06/07 13:44:47;;;;;;;;;;;19.00;85.70;;;;;;4317591;33;40711;-83
2021/06/07 13:47:19;;;;;;;;;;;19.00;86.00;;;;;;4319764;33;20066;-83
2021/06/07 13:50:05;;;;;;;;;;;19.00;85.50;;;;;;4318728;33;28876;-83
2021/06/07 13:52:43;;;;;;;;;;;19.00;85.50;;;;;;4319877;33;20014;-83
2021/06/07 13:55:14;;;;;;;;;;;19.00;85.40;;;;;;4306052;33;23036;-83
2021/06/07 13:58:11;;;;;;;;;;;19.00;85.40;;;;;;4306389;33;20016;-82
2021/06/07 14:00:40;;;;;;;;;;;19.10;85.40;;;;;;4302342;33;20024;-82
2021/06/07 14:03:18;;;;;;;;;;;19.10;85.30;;;;;;4293633;33;20044;-82
2021/06/07 14:05:47;;;;;;;;;;;19.10;85.30;;;;;;4319399;33;20020;-82
2021/06/07 14:08:22;;;;;;;;;;;19.10;86.00;;;;;;4319596;33;20065;-82
2021/06/07 14:10:52;;;;;;;;;;;19.10;85.20;;;;;;4319159;33;22672;-82
2021/06/07 14:13:20;;;;;;;;;;;19.20;85.20;;;;;;4318694;33;26028;-83
2021/06/07 14:15:48;;;;;;;;;;;19.20;85.20;;;;;;4293454;33;25576;-82
2021/06/07 14:18:18;;;;;;;;;;;19.20;85.10;;;;;;4305217;33;23694;-82
2021/06/07 14:20:47;;;;;;;;;;;19.20;85.00;;;;;;4305189;33;43182;-83
2021/06/07 14:26:14;;;;;;;;;;;19.30;85.00;;;;;;4318684;33;20750;-82
2021/06/07 14:28:42;;;;;;;;;;;19.30;84.90;;;;;;4293250;33;26206;-83
2021/06/07 14:31:10;;;;;;;;;;;19.30;84.90;;;;;;4318677;33;20002;-83
2021/06/07 14:33:38;;;;;;;;;;;19.30;84.80;;;;;;4304509;33;43391;-83
2021/06/07 14:36:10;;;;;;;;;;;19.40;84.80;;;;;;4318031;33;44017;-83
2021/06/07 14:38:38;;;;;;;;;;;19.40;84.70;;;;;;4304814;33;44254;-82
2021/06/07 14:41:07;;;;;;;;;;;19.30;84.60;;;;;;4304979;33;44006;-83
2021/06/07 14:43:35;;;;;;;;;;;19.40;84.60;;;;;;4317587;33;43646;-83
2021/06/07 14:46:05;;;;;;;;;;;19.40;84.60;;;;;;4304018;33;44494;-82